Leon, Minnesota
Current Conditions -  °F | °C
As of 7:15 AM on Sunday 21 Dec 2014 (Local Time) from KFSE Reporting Station
Haze Haze  
Wind Chill: 18°   Ceiling: 600
Heat Index: 28°   Visibility: 4mi
Dew Point: 27°   Wind: 12mph
Humidity: 93%   Direction: 170°S
Pressure: 29.76"   Gusts: NA
Location:  47.7926°N, 95.3062°W
Report Text: KFSE 211315Z AUTO 17010KT 4SM BR OVC006 M02/M03 A2976 RMK AO2
Loading
Personal Weather Stations






























Interactive Weather Map New forecast layout! Learn more

10-Day Weather Forecast

Advertisements
Track Severe Weather on mobile